createdAt,value
2017-09-11T00:00:02.588Z,995.51
2017-09-11T00:05:02.889Z,995.43
2017-09-11T00:10:03.533Z,995.34
2017-09-11T00:15:02.987Z,995.16
2017-09-11T00:20:03.451Z,995.19
2017-09-11T00:25:02.870Z,995.06
2017-09-11T00:30:03.337Z,995.11
2017-09-11T00:35:02.879Z,995.11
2017-09-11T00:40:03.684Z,995.09
2017-09-11T00:45:03.231Z,995.14
2017-09-11T00:50:03.656Z,995.01
2017-09-11T00:55:03.259Z,994.84
2017-09-11T01:00:02.732Z,994.93
2017-09-11T01:05:03.228Z,994.83
2017-09-11T01:10:02.706Z,994.8
2017-09-11T01:15:03.380Z,994.72
2017-09-11T01:20:02.983Z,994.73
2017-09-11T01:25:03.467Z,994.62
2017-09-11T01:30:03.036Z,994.97
2017-09-11T01:35:03.639Z,994.55
2017-09-11T01:40:03.113Z,994.5
2017-09-11T01:45:03.513Z,994.69
2017-09-11T01:50:03.104Z,994.58
2017-09-11T01:55:02.707Z,994.81
2017-09-11T02:00:03.137Z,994.47
2017-09-11T02:05:02.764Z,994.59
2017-09-11T02:10:03.468Z,994.47
2017-09-11T02:15:02.836Z,994.35
2017-09-11T02:20:03.263Z,994.29
2017-09-11T02:25:02.766Z,994.28
2017-09-11T02:30:03.158Z,994.41
2017-09-11T02:35:02.754Z,994.29
2017-09-11T02:40:03.282Z,994.2
2017-09-11T02:45:02.694Z,994.18
2017-09-11T02:50:03.203Z,994.02
2017-09-11T02:55:03.639Z,994.23
2017-09-11T03:00:03.022Z,994.04
2017-09-11T03:05:03.445Z,994.08
2017-09-11T03:10:02.974Z,993.94
2017-09-11T03:15:03.509Z,993.78
2017-09-11T03:20:02.979Z,993.91
2017-09-11T03:25:03.367Z,993.85
2017-09-11T03:30:02.921Z,993.91
2017-09-11T03:35:03.509Z,994.14
2017-09-11T03:40:03.098Z,994.26
2017-09-11T03:45:03.522Z,994.02
2017-09-11T03:50:02.952Z,994.1
2017-09-11T03:55:03.544Z,993.99
2017-09-11T04:00:03.079Z,994.06
2017-09-11T04:05:03.469Z,994.03
2017-09-11T04:10:03.235Z,993.99
2017-09-11T04:15:02.771Z,994.08
2017-09-11T04:20:03.182Z,994.04
2017-09-11T04:25:02.642Z,994.11
2017-09-11T04:30:03.038Z,994.1
2017-09-11T04:35:03.453Z,994.18
2017-09-11T04:40:02.827Z,994.17
2017-09-11T04:45:03.355Z,994.14
2017-09-11T04:50:02.845Z,994.14
2017-09-11T04:55:03.433Z,994.13
2017-09-11T05:00:02.947Z,994.18
2017-09-11T05:05:02.811Z,994.12
2017-09-11T05:10:03.407Z,994.18
2017-09-11T05:15:02.794Z,994.07
2017-09-11T05:20:03.214Z,994.16
2017-09-11T05:25:02.654Z,994.19
2017-09-11T05:30:03.130Z,994.19
2017-09-11T05:35:02.746Z,994.29
2017-09-11T05:40:03.264Z,994.31
2017-09-11T05:45:02.650Z,994.25
2017-09-11T05:50:03.211Z,994.39
2017-09-11T05:55:02.686Z,994.45
2017-09-11T06:00:03.295Z,994.46
2017-09-11T06:05:02.851Z,994.43
2017-09-11T06:10:03.309Z,994.44
2017-09-11T06:15:02.852Z,994.47
2017-09-11T06:20:03.289Z,994.52
2017-09-11T06:25:02.731Z,994.56
2017-09-11T06:30:03.300Z,994.65
2017-09-11T06:35:02.890Z,994.6
2017-09-11T06:40:03.517Z,994.66
2017-09-11T06:45:03.027Z,994.65
2017-09-11T06:50:03.449Z,994.67
2017-09-11T06:55:02.953Z,994.59
2017-09-11T07:00:03.558Z,994.58
2017-09-11T07:05:02.995Z,994.65
2017-09-11T07:10:03.606Z,994.6
2017-09-11T07:15:03.021Z,994.67
2017-09-11T07:20:03.597Z,994.7
2017-09-11T07:25:03.180Z,994.84
2017-09-11T07:30:03.019Z,994.71
2017-09-11T07:35:02.637Z,994.83
2017-09-11T07:40:03.106Z,994.73
2017-09-11T07:45:02.613Z,994.97
2017-09-11T07:50:03.208Z,994.75
2017-09-11T07:55:03.573Z,994.9
2017-09-11T08:00:02.995Z,995.11
2017-09-11T08:05:03.616Z,995.01
2017-09-11T08:10:03.094Z,995.06
2017-09-11T08:15:02.742Z,995.22
2017-09-11T08:20:03.340Z,995.21
2017-09-11T08:25:02.838Z,995.23
2017-09-11T08:30:03.407Z,995.18
2017-09-11T08:35:02.958Z,995.45
2017-09-11T08:40:03.418Z,995.16
2017-09-11T08:45:02.977Z,995.23
2017-09-11T08:50:03.431Z,995.43
2017-09-11T08:55:02.855Z,995.21
2017-09-11T09:00:03.464Z,995.23
2017-09-11T09:05:03.129Z,995.15
2017-09-11T09:10:02.823Z,995.31
2017-09-11T09:15:03.299Z,995.19
2017-09-11T09:20:02.902Z,995.38
2017-09-11T09:25:03.344Z,995.35
2017-09-11T09:30:02.760Z,995.29
2017-09-11T09:35:03.414Z,995.22
2017-09-11T09:40:02.963Z,995.37
2017-09-11T09:45:03.439Z,995.34
2017-09-11T09:50:03.012Z,995.31
2017-09-11T09:55:03.464Z,995.23
2017-09-11T10:00:03.075Z,995.37
2017-09-11T10:05:02.667Z,995.31
2017-09-11T10:10:03.215Z,995.57
2017-09-11T10:15:03.620Z,995.3
2017-09-11T10:20:03.095Z,995.29
2017-09-11T10:25:03.632Z,995.35
2017-09-11T10:30:03.099Z,995.25
2017-09-11T10:35:03.515Z,995.25
2017-09-11T10:40:03.050Z,995.47
2017-09-11T10:45:03.629Z,995.52
2017-09-11T10:50:03.099Z,995.37
2017-09-11T10:55:03.511Z,995.37
2017-09-11T11:00:02.874Z,995.15
2017-09-11T11:05:03.386Z,995.66
2017-09-11T11:10:02.981Z,995.39
2017-09-11T11:15:03.437Z,995.38
2017-09-11T11:20:02.989Z,995.14
2017-09-11T11:25:03.500Z,995.59
2017-09-11T11:30:02.976Z,995.31
2017-09-11T11:35:03.547Z,995.21
2017-09-11T11:40:03.093Z,995.5
2017-09-11T11:45:03.513Z,995.37
2017-09-11T11:50:02.951Z,995.31
2017-09-11T11:55:03.322Z,995.24
2017-09-11T12:00:02.859Z,995.38
2017-09-11T12:05:03.328Z,995.43
2017-09-11T12:10:02.902Z,995.59
2017-09-11T12:15:03.336Z,995.48
2017-09-11T12:20:02.865Z,995.33
2017-09-11T12:25:03.334Z,995.45
2017-09-11T12:30:02.836Z,995.57
2017-09-11T12:35:03.224Z,996
2017-09-11T12:40:02.884Z,995.77
2017-09-11T12:45:03.401Z,995.84
2017-09-11T12:50:02.956Z,995.72
2017-09-11T12:55:03.426Z,995.81
2017-09-11T13:00:02.877Z,995.69
2017-09-11T13:05:03.444Z,995.7
2017-09-11T13:10:03.050Z,995.6
2017-09-11T13:15:03.633Z,995.84
2017-09-11T13:20:03.238Z,995.63
2017-09-11T13:25:02.696Z,995.69
2017-09-11T13:30:03.051Z,996.11
2017-09-11T13:35:03.483Z,995.5
2017-09-11T13:40:02.924Z,995.64
2017-09-11T13:45:03.473Z,995.84
2017-09-11T13:50:02.973Z,995.79
2017-09-11T13:55:03.525Z,995.85
2017-09-11T14:00:03.161Z,995.88
2017-09-11T14:05:03.587Z,995.72
2017-09-11T14:10:03.099Z,995.77
2017-09-11T14:15:03.629Z,996.1
2017-09-11T14:20:03.074Z,995.82
2017-09-11T14:25:03.466Z,995.79
2017-09-11T14:30:02.812Z,995.62
2017-09-11T14:35:03.223Z,995.9
2017-09-11T14:40:02.728Z,995.94
2017-09-11T14:45:03.208Z,995.78
2017-09-11T14:50:03.580Z,995.86
2017-09-11T14:55:03.085Z,995.95
2017-09-11T15:00:02.689Z,997.16
2017-09-11T15:05:03.113Z,996.37
2017-09-11T15:10:03.559Z,996.26
2017-09-11T15:15:03.018Z,996.33
2017-09-11T15:20:02.616Z,996.21
2017-09-11T15:25:03.141Z,996.21
2017-09-11T15:30:02.721Z,996.25
2017-09-11T15:35:03.131Z,996.2
2017-09-11T15:40:02.724Z,996.11
2017-09-11T15:45:03.192Z,996.11
2017-09-11T15:50:02.802Z,996.02
2017-09-11T15:55:03.310Z,996.34
2017-09-11T16:00:02.759Z,996.32
2017-09-11T16:05:03.340Z,996.46
2017-09-11T16:10:02.829Z,996.73
2017-09-11T16:15:03.342Z,996.15
2017-09-11T16:20:02.765Z,996.08
2017-09-11T16:25:03.247Z,996.21
2017-09-11T16:30:02.670Z,996.27
2017-09-11T16:35:03.262Z,996.28
2017-09-11T16:40:02.713Z,996.22
2017-09-11T16:45:03.080Z,996.28
2017-09-11T16:50:03.630Z,996.42
2017-09-11T16:55:03.172Z,996.28
2017-09-11T17:00:02.741Z,996.37
2017-09-11T17:05:03.118Z,996.36
2017-09-11T17:10:03.636Z,996.25
2017-09-11T17:15:02.989Z,996.28
2017-09-11T17:20:03.765Z,996.3
2017-09-11T17:25:03.117Z,996.2
2017-09-11T17:30:02.677Z,996.21
2017-09-11T17:35:03.084Z,996.29
2017-09-11T17:40:02.731Z,996.3
2017-09-11T17:45:03.111Z,996.26
2017-09-11T17:50:03.533Z,996.58
2017-09-11T17:55:02.965Z,996.56
2017-09-11T18:00:03.427Z,996.6
2017-09-11T18:05:02.938Z,996.75
2017-09-11T18:10:03.563Z,996.83
2017-09-11T18:15:02.945Z,996.93
2017-09-11T18:20:03.448Z,996.92
2017-09-11T18:25:02.955Z,996.85
2017-09-11T18:30:03.509Z,996.89
2017-09-11T18:35:03.603Z,996.87
2017-09-11T18:40:03.057Z,996.86
2017-09-11T18:45:03.609Z,996.89
2017-09-11T18:50:03.179Z,997.21
2017-09-11T18:55:02.658Z,996.95
2017-09-11T19:00:03.056Z,996.9
2017-09-11T19:05:02.673Z,997.05
2017-09-11T19:10:03.165Z,997.04
2017-09-11T19:15:02.653Z,997.18
2017-09-11T19:20:03.116Z,997.31
2017-09-11T19:25:03.584Z,997.3
2017-09-11T19:30:03.003Z,997.41
2017-09-11T19:35:03.822Z,997.42
2017-09-11T19:40:03.400Z,997.74
2017-09-11T19:45:02.981Z,997.38
2017-09-11T19:50:03.365Z,997.49
2017-09-11T19:55:02.903Z,997.54
2017-09-11T20:00:03.270Z,997.72
2017-09-11T20:05:03.656Z,997.78
2017-09-11T20:10:03.104Z,997.72
2017-09-11T20:15:03.575Z,997.64
2017-09-11T20:20:03.126Z,997.72
2017-09-11T20:25:03.598Z,997.85
2017-09-11T20:30:02.992Z,997.95
2017-09-11T20:35:03.562Z,997.73
2017-09-11T20:40:02.995Z,997.91
2017-09-11T20:45:03.483Z,997.83
2017-09-11T20:50:02.871Z,997.91
2017-09-11T20:55:03.471Z,997.84
2017-09-11T21:00:02.959Z,997.81
2017-09-11T21:05:03.402Z,998.05
2017-09-11T21:10:02.781Z,997.82
2017-09-11T21:15:03.383Z,998.04
2017-09-11T21:20:02.939Z,997.95
2017-09-11T21:25:03.265Z,998.23
2017-09-11T21:35:03.469Z,998.31
2017-09-11T21:40:02.927Z,998.24
2017-09-11T21:45:03.371Z,998.18
2017-09-11T21:50:02.863Z,998.08
2017-09-11T21:55:03.289Z,998.11
2017-09-11T22:00:02.768Z,998.18
2017-09-11T22:05:03.278Z,998.19
2017-09-11T22:10:02.792Z,998.16
2017-09-11T22:15:03.360Z,998.1
2017-09-11T22:20:02.921Z,998.03
2017-09-11T22:25:03.445Z,998.31
2017-09-11T22:30:02.836Z,998.21
2017-09-11T22:35:03.283Z,998.25
2017-09-11T22:40:02.850Z,998.12
2017-09-11T22:45:03.245Z,998.14
2017-09-11T22:50:02.739Z,998.13
2017-09-11T22:55:03.157Z,998.24
2017-09-11T23:00:04.028Z,998.27
2017-09-11T23:05:03.477Z,998.3
2017-09-11T23:10:02.839Z,998.18
2017-09-11T23:15:03.322Z,998.35
2017-09-11T23:20:03.137Z,998.32
2017-09-11T23:25:02.628Z,998.3
2017-09-11T23:30:03.066Z,998.31
2017-09-11T23:35:03.593Z,998.17
2017-09-11T23:40:03.182Z,998.3
2017-09-11T23:45:03.543Z,998.19
2017-09-11T23:50:02.967Z,998.33
2017-09-11T23:55:03.375Z,998.23
